createdAt,value
2023-04-14T00:02:45.128Z,3.33
2023-04-14T00:05:33.442Z,3.42
2023-04-14T00:08:19.839Z,2.97
2023-04-14T00:11:06.531Z,3.13
2023-04-14T00:13:52.665Z,2.90
2023-04-14T00:16:39.543Z,2.90
2023-04-14T00:19:26.043Z,2.90
2023-04-14T00:22:13.660Z,3.15
2023-04-14T00:25:01.193Z,3.78
2023-04-14T00:27:47.614Z,3.78
2023-04-14T00:30:34.671Z,3.67
2023-04-14T00:33:21.971Z,3.50
2023-04-14T00:36:08.694Z,3.30
2023-04-14T00:38:56.174Z,2.75
2023-04-14T00:41:43.279Z,4.57
2023-04-14T00:44:29.971Z,3.93
2023-04-14T00:47:17.267Z,4.20
2023-04-14T00:50:04.265Z,4.28
2023-04-14T00:52:52.635Z,3.55
2023-04-14T00:55:41.537Z,3.58
2023-04-14T00:58:28.426Z,2.90
2023-04-14T01:01:16.671Z,2.90
2023-04-14T01:04:04.403Z,3.00
2023-04-14T01:06:50.996Z,2.70
2023-04-14T01:09:37.752Z,3.60
2023-04-14T01:12:35.551Z,2.80
2023-04-14T01:15:29.956Z,3.00
2023-04-14T01:18:26.141Z,3.40
2023-04-14T01:21:18.203Z,3.20
2023-04-14T01:24:22.565Z,3.55
2023-04-14T01:27:33.503Z,2.93
2023-04-14T01:30:36.246Z,2.40
2023-04-14T01:33:26.334Z,3.08
2023-04-14T01:36:18.434Z,2.60
2023-04-14T01:39:09.251Z,2.95
2023-04-14T01:41:58.891Z,2.93
2023-04-14T01:44:49.489Z,3.17
2023-04-14T01:47:37.256Z,3.25
2023-04-14T01:50:28.052Z,3.47
2023-04-14T01:53:18.929Z,3.83
2023-04-14T01:56:08.346Z,3.33
2023-04-14T01:58:57.338Z,3.20
2023-04-14T02:01:45.078Z,3.47
2023-04-14T02:04:33.172Z,3.30
2023-04-14T02:07:22.756Z,3.35
2023-04-14T02:10:11.080Z,2.90
2023-04-14T02:13:04.675Z,3.28
2023-04-14T02:15:52.174Z,3.47
2023-04-14T02:18:41.366Z,3.30
2023-04-14T02:21:29.759Z,3.72
2023-04-14T02:24:18.291Z,3.07
2023-04-14T02:27:09.813Z,3.03
2023-04-14T02:29:57.763Z,3.40
2023-04-14T02:32:47.636Z,3.53
2023-04-14T02:35:39.819Z,3.55
2023-04-14T02:38:34.357Z,2.83
2023-04-14T02:41:25.840Z,2.75
2023-04-14T02:44:18.775Z,3.22
2023-04-14T02:47:07.686Z,3.63
2023-04-14T02:50:00.421Z,3.35
2023-04-14T02:52:51.411Z,3.30
2023-04-14T02:55:39.833Z,3.10
2023-04-14T02:58:29.127Z,4.13
2023-04-14T03:01:17.145Z,3.53
2023-04-14T03:04:04.052Z,3.25
2023-04-14T03:06:55.855Z,3.50
2023-04-14T03:09:43.019Z,3.08
2023-04-14T03:12:31.019Z,3.10
2023-04-14T03:15:19.622Z,3.03
2023-04-14T03:18:07.310Z,3.05
2023-04-14T03:20:55.807Z,3.30
2023-04-14T03:23:43.547Z,3.05
2023-04-14T03:26:33.317Z,3.17
2023-04-14T03:29:22.302Z,3.67
2023-04-14T03:32:12.056Z,3.17
2023-04-14T03:35:01.362Z,3.23
2023-04-14T03:37:50.628Z,3.05
2023-04-14T03:40:41.225Z,3.63
2023-04-14T03:43:29.526Z,3.58
2023-04-14T03:46:21.852Z,4.00
2023-04-14T03:49:11.554Z,3.70
2023-04-14T03:52:02.637Z,3.47
2023-04-14T03:54:51.967Z,3.65
2023-04-14T03:57:41.128Z,3.35
2023-04-14T04:00:30.587Z,3.35
2023-04-14T04:03:19.519Z,3.63
2023-04-14T04:06:08.732Z,3.30
2023-04-14T04:08:58.515Z,3.30
2023-04-14T04:11:48.696Z,3.20
2023-04-14T04:14:39.297Z,3.35
2023-04-14T04:17:28.570Z,3.27
2023-04-14T04:20:16.311Z,3.60
2023-04-14T04:23:08.306Z,3.65
2023-04-14T04:25:56.811Z,3.17
2023-04-14T04:28:51.091Z,3.03
2023-04-14T04:31:37.760Z,3.03
2023-04-14T04:34:26.608Z,3.30
2023-04-14T04:37:14.798Z,3.10
2023-04-14T04:40:02.305Z,3.13
2023-04-14T04:42:48.936Z,3.50
2023-04-14T04:46:09.865Z,2.83
2023-04-14T04:48:58.215Z,2.38
2023-04-14T04:51:45.570Z,2.90
2023-04-14T04:54:32.387Z,2.53
2023-04-14T04:57:20.123Z,2.97
2023-04-14T05:00:08.922Z,2.87
2023-04-14T05:02:55.697Z,3.33
2023-04-14T05:05:42.226Z,3.38
2023-04-14T05:08:28.406Z,3.60
2023-04-14T05:11:14.678Z,3.05
2023-04-14T05:14:02.637Z,3.13
2023-04-14T05:16:48.864Z,3.28
2023-04-14T05:19:35.557Z,3.08
2023-04-14T05:22:22.134Z,3.30
2023-04-14T05:25:09.112Z,3.40
2023-04-14T05:27:55.627Z,3.07
2023-04-14T05:30:43.456Z,3.42
2023-04-14T05:33:29.814Z,3.67
2023-04-14T05:36:16.269Z,3.60
2023-04-14T05:39:02.968Z,3.33
2023-04-14T05:41:49.189Z,3.53
2023-04-14T05:44:35.638Z,3.35
2023-04-14T05:47:23.600Z,3.38
2023-04-14T05:50:10.614Z,3.50
2023-04-14T05:52:57.257Z,3.83
2023-04-14T05:55:43.767Z,4.80
2023-04-14T05:58:30.111Z,4.78
2023-04-14T06:01:16.548Z,5.22
2023-04-14T06:04:04.982Z,4.35
2023-04-14T06:06:51.937Z,4.70
2023-04-14T06:09:38.091Z,4.60
2023-04-14T06:12:24.366Z,5.00
2023-04-14T06:15:11.218Z,6.15
2023-04-14T06:17:57.491Z,7.05
2023-04-14T06:20:46.318Z,5.68
2023-04-14T06:23:32.754Z,3.90
2023-04-14T06:26:18.971Z,4.20
2023-04-14T06:29:07.382Z,3.70
2023-04-14T06:31:54.847Z,4.05
2023-04-14T06:34:41.217Z,4.68
2023-04-14T06:37:28.745Z,4.73
2023-04-14T06:40:15.275Z,4.78
2023-04-14T06:43:01.701Z,4.95
2023-04-14T06:45:48.221Z,5.32
2023-04-14T06:48:34.773Z,6.13
2023-04-14T06:51:21.327Z,6.13
2023-04-14T06:54:09.007Z,5.68
2023-04-14T06:56:55.875Z,5.38
2023-04-14T06:59:42.479Z,5.97
2023-04-14T07:02:47.431Z,5.20
2023-04-14T07:05:52.990Z,4.30
2023-04-14T07:08:40.599Z,4.22
2023-04-14T07:11:29.763Z,3.80
2023-04-14T07:14:16.304Z,3.70
2023-04-14T07:17:02.853Z,4.10
2023-04-14T07:19:49.351Z,3.67
2023-04-14T07:22:35.763Z,3.60
2023-04-14T07:25:22.991Z,3.38
2023-04-14T07:28:11.516Z,3.60
2023-04-14T07:30:58.238Z,3.10
2023-04-14T07:33:44.768Z,3.57
2023-04-14T07:36:32.099Z,3.22
2023-04-14T07:39:22.607Z,3.50
2023-04-14T07:42:09.303Z,3.38
2023-04-14T07:44:56.979Z,3.10
2023-04-14T07:47:43.323Z,3.57
2023-04-14T07:50:30.164Z,3.30
2023-04-14T07:53:16.622Z,3.35
2023-04-14T07:56:03.304Z,3.58
2023-04-14T07:58:49.844Z,3.60
2023-04-14T08:01:37.620Z,3.37
2023-04-14T08:04:24.046Z,3.72
2023-04-14T08:07:10.825Z,3.92
2023-04-14T08:09:57.166Z,3.28
2023-04-14T08:12:43.699Z,3.70
2023-04-14T08:15:30.262Z,3.37
2023-04-14T08:18:17.772Z,4.05
2023-04-14T08:21:04.076Z,3.90
2023-04-14T08:23:50.793Z,4.20
2023-04-14T08:26:37.013Z,3.40
2023-04-14T08:29:23.737Z,3.73
2023-04-14T08:32:10.038Z,4.15
2023-04-14T08:35:37.435Z,4.35
2023-04-14T08:38:04.275Z,4.13
2023-04-14T08:40:55.829Z,4.40
2023-04-14T08:43:42.888Z,4.10
2023-04-14T08:46:30.113Z,4.07
2023-04-14T08:49:25.910Z,4.03
2023-04-14T08:52:14.268Z,3.92
2023-04-14T08:55:02.400Z,4.05
2023-04-14T08:57:50.103Z,4.10
2023-04-14T09:00:36.458Z,4.68
2023-04-14T09:03:24.070Z,4.43
2023-04-14T09:06:11.958Z,4.00
2023-04-14T09:09:03.715Z,4.10
2023-04-14T09:11:51.390Z,4.07
2023-04-14T09:14:38.331Z,4.00
2023-04-14T09:17:26.233Z,3.85
2023-04-14T09:20:38.077Z,3.60
2023-04-14T09:23:22.612Z,3.78
2023-04-14T09:26:11.446Z,3.43
2023-04-14T09:28:58.629Z,3.60
2023-04-14T09:31:45.880Z,3.88
2023-04-14T09:34:32.586Z,3.65
2023-04-14T09:37:19.787Z,3.20
2023-04-14T09:40:08.140Z,3.03
2023-04-14T09:42:57.338Z,3.58
2023-04-14T09:45:44.649Z,4.10
2023-04-14T09:48:31.519Z,3.50
2023-04-14T09:51:18.266Z,4.20
2023-04-14T09:54:06.180Z,3.90
2023-04-14T09:56:53.137Z,3.88
2023-04-14T09:59:41.624Z,4.20
2023-04-14T10:02:28.130Z,4.00
2023-04-14T10:05:15.007Z,3.72
2023-04-14T10:08:03.469Z,4.40
2023-04-14T10:10:49.680Z,3.80
2023-04-14T10:13:36.287Z,4.07
2023-04-14T10:16:25.151Z,3.30
2023-04-14T10:19:11.389Z,3.80
2023-04-14T10:21:58.549Z,4.03
2023-04-14T10:24:45.377Z,4.28
2023-04-14T10:27:33.750Z,3.65
2023-04-14T10:30:20.047Z,4.22
2023-04-14T10:33:07.887Z,3.65
2023-04-14T10:36:00.602Z,3.63
2023-04-14T10:38:47.437Z,3.70
2023-04-14T10:41:45.728Z,4.03
2023-04-14T10:44:34.913Z,3.42
2023-04-14T10:47:24.713Z,3.10
2023-04-14T10:50:14.218Z,3.03
2023-04-14T10:53:09.252Z,4.30
2023-04-14T10:55:56.946Z,3.60
2023-04-14T10:58:55.334Z,4.05
2023-04-14T11:01:41.809Z,3.75
2023-04-14T11:04:28.675Z,3.77
2023-04-14T11:07:21.976Z,3.20
2023-04-14T11:10:35.702Z,3.00
2023-04-14T11:13:22.199Z,2.92
2023-04-14T11:16:09.017Z,2.55
2023-04-14T11:18:55.581Z,2.80
2023-04-14T11:21:50.709Z,2.75
2023-04-14T11:24:39.178Z,3.00
2023-04-14T11:27:25.761Z,2.95
2023-04-14T11:30:16.022Z,2.75
2023-04-14T11:33:02.540Z,2.90
2023-04-14T11:35:49.139Z,2.53
2023-04-14T11:38:40.213Z,2.55
2023-04-14T11:41:28.416Z,2.85
2023-04-14T11:44:17.825Z,2.42
2023-04-14T11:47:05.147Z,2.33
2023-04-14T11:49:51.916Z,2.03
2023-04-14T11:52:38.838Z,2.65
2023-04-14T11:55:25.074Z,2.03
2023-04-14T11:58:13.722Z,1.77
2023-04-14T12:01:00.672Z,2.17
2023-04-14T12:03:47.221Z,2.20
2023-04-14T12:06:38.612Z,1.63
2023-04-14T12:09:30.059Z,2.00
2023-04-14T12:12:18.652Z,2.20
2023-04-14T12:15:09.854Z,1.73
2023-04-14T12:17:57.101Z,2.08
2023-04-14T12:20:45.967Z,2.60
2023-04-14T12:23:35.736Z,2.40
2023-04-14T12:26:22.194Z,2.40
2023-04-14T12:29:09.904Z,2.20
2023-04-14T12:31:57.913Z,1.88
2023-04-14T12:34:54.810Z,1.98
2023-04-14T12:37:49.852Z,1.65
2023-04-14T12:40:40.534Z,1.80
2023-04-14T12:43:31.773Z,1.60
2023-04-14T12:46:25.601Z,1.77
2023-04-14T12:49:30.451Z,1.40
2023-04-14T12:52:35.671Z,1.60
2023-04-14T12:55:23.788Z,1.60
2023-04-14T12:58:10.300Z,1.60
2023-04-14T13:00:56.992Z,1.80
2023-04-14T13:03:45.974Z,1.60
2023-04-14T13:06:33.967Z,1.25
2023-04-14T13:09:20.477Z,1.52
2023-04-14T13:12:07.116Z,1.43
2023-04-14T13:14:53.781Z,1.60
2023-04-14T13:17:40.437Z,2.05
2023-04-14T13:20:26.656Z,1.50
2023-04-14T13:23:14.352Z,1.73
2023-04-14T13:26:01.478Z,1.10
2023-04-14T13:28:50.271Z,1.40
2023-04-14T13:31:37.827Z,1.67
2023-04-14T13:34:24.114Z,1.73
2023-04-14T13:37:10.568Z,1.73
2023-04-14T13:39:59.230Z,1.30
2023-04-14T13:42:46.944Z,1.60
2023-04-14T13:45:34.495Z,1.52
2023-04-14T13:48:27.415Z,1.83
2023-04-14T13:51:14.623Z,1.52
2023-04-14T13:54:01.461Z,2.40
2023-04-14T13:56:48.982Z,1.30
2023-04-14T13:59:35.230Z,1.48
2023-04-14T14:02:23.707Z,1.40
2023-04-14T14:05:12.115Z,1.80
2023-04-14T14:07:58.702Z,1.60
2023-04-14T14:10:45.276Z,1.38
2023-04-14T14:13:33.954Z,1.50
2023-04-14T14:16:36.063Z,1.25
2023-04-14T14:19:23.871Z,1.38
2023-04-14T14:22:10.336Z,1.30
2023-04-14T14:25:10.621Z,1.30
2023-04-14T14:28:03.804Z,1.55
2023-04-14T14:30:51.980Z,1.30
2023-04-14T14:33:38.991Z,1.60
2023-04-14T14:36:26.636Z,1.37
2023-04-14T14:39:13.044Z,1.60
2023-04-14T14:42:00.076Z,1.23
2023-04-14T14:44:46.566Z,1.27
2023-04-14T14:47:34.539Z,1.35
2023-04-14T14:50:21.467Z,1.13
2023-04-14T14:53:08.029Z,1.45
2023-04-14T14:55:54.318Z,1.15
2023-04-14T14:58:41.249Z,1.52
2023-04-14T15:01:27.643Z,1.30
2023-04-14T15:04:15.445Z,1.47
2023-04-14T15:07:02.092Z,1.55
2023-04-14T15:09:49.824Z,1.50
2023-04-14T15:12:36.219Z,1.60
2023-04-14T15:15:22.634Z,1.80
2023-04-14T15:18:10.149Z,1.43
2023-04-14T15:20:57.785Z,1.58
2023-04-14T15:23:45.568Z,1.60
2023-04-14T15:26:32.121Z,1.52
2023-04-14T15:29:19.340Z,1.63
2023-04-14T15:32:05.806Z,1.57
2023-04-14T15:34:52.301Z,1.65
2023-04-14T15:37:40.221Z,1.60
2023-04-14T15:40:26.409Z,1.23
2023-04-14T15:43:13.054Z,1.27
2023-04-14T15:45:59.679Z,1.50
2023-04-14T15:48:46.240Z,1.77
2023-04-14T15:51:32.790Z,1.80
2023-04-14T15:54:21.063Z,1.70
2023-04-14T15:57:07.690Z,1.90
2023-04-14T15:59:54.122Z,1.47
2023-04-14T16:02:41.914Z,1.83
2023-04-14T16:05:28.815Z,1.63
2023-04-14T16:08:15.745Z,1.40
2023-04-14T16:11:03.679Z,1.55
2023-04-14T16:13:50.036Z,1.30
2023-04-14T16:16:36.840Z,1.63
2023-04-14T16:19:23.410Z,1.48
2023-04-14T16:22:11.266Z,1.60
2023-04-14T16:24:57.640Z,1.33
2023-04-14T16:27:45.699Z,1.40
2023-04-14T16:30:32.668Z,1.40
2023-04-14T16:33:19.384Z,1.50
2023-04-14T16:36:07.241Z,1.70
2023-04-14T16:38:53.886Z,1.73
2023-04-14T16:41:40.489Z,1.40
2023-04-14T16:44:28.160Z,1.20
2023-04-14T16:47:14.779Z,1.60
2023-04-14T16:50:01.418Z,1.15
2023-04-14T16:52:47.614Z,1.02
2023-04-14T16:55:34.669Z,1.40
2023-04-14T16:58:21.543Z,0.93
2023-04-14T17:01:09.667Z,1.00
2023-04-14T17:03:56.664Z,2.33
2023-04-14T17:06:43.506Z,2.15
2023-04-14T17:09:30.113Z,2.67
2023-04-14T17:12:17.674Z,2.50
2023-04-14T17:15:07.162Z,2.60
2023-04-14T17:17:55.070Z,2.67
2023-04-14T17:20:42.750Z,2.60
2023-04-14T17:23:29.732Z,2.90
2023-04-14T17:26:16.891Z,2.85
2023-04-14T17:29:03.526Z,3.28
2023-04-14T17:31:50.564Z,2.47
2023-04-14T17:34:38.201Z,2.92
2023-04-14T17:37:25.347Z,2.87
2023-04-14T17:40:12.491Z,2.45
2023-04-14T17:42:59.000Z,2.78
2023-04-14T17:45:50.164Z,3.40
2023-04-14T17:48:37.036Z,2.92
2023-04-14T17:51:24.924Z,2.60
2023-04-14T17:54:11.741Z,2.80
2023-04-14T17:56:58.588Z,3.08
2023-04-14T17:59:45.839Z,3.08
2023-04-14T18:02:33.072Z,3.42
2023-04-14T18:05:19.731Z,2.63
2023-04-14T18:08:07.748Z,2.67
2023-04-14T18:10:54.162Z,3.00
2023-04-14T18:13:40.600Z,2.63
2023-04-14T18:16:27.392Z,2.67
2023-04-14T18:19:13.922Z,2.87
2023-04-14T18:22:00.253Z,2.80
2023-04-14T18:24:48.678Z,2.97
2023-04-14T18:30:25.371Z,2.78
2023-04-14T18:33:11.782Z,2.47
2023-04-14T18:36:00.496Z,2.80
2023-04-14T18:38:47.476Z,3.10
2023-04-14T18:41:35.260Z,2.90
2023-04-14T18:44:21.836Z,3.00
2023-04-14T18:47:09.240Z,2.60
2023-04-14T18:49:55.796Z,3.03
2023-04-14T18:52:43.006Z,3.33
2023-04-14T18:55:44.556Z,3.45
2023-04-14T18:58:33.471Z,3.10
2023-04-14T19:01:20.043Z,3.13
2023-04-14T19:04:07.582Z,2.88
2023-04-14T19:06:54.187Z,2.75
2023-04-14T19:09:40.609Z,2.70
2023-04-14T19:12:28.895Z,2.45
2023-04-14T19:15:16.986Z,2.73
2023-04-14T19:18:04.948Z,3.10
2023-04-14T19:20:51.642Z,2.80
2023-04-14T19:23:38.509Z,3.15
2023-04-14T19:26:25.158Z,3.90
2023-04-14T19:29:12.299Z,3.77
2023-04-14T19:32:00.104Z,2.92
2023-04-14T19:34:46.666Z,3.30
2023-04-14T19:37:33.837Z,2.80
2023-04-14T19:40:20.388Z,2.92
2023-04-14T19:43:07.047Z,4.20
2023-04-14T19:45:54.410Z,4.60
2023-04-14T19:48:42.358Z,3.95
2023-04-14T19:51:28.914Z,3.28
2023-04-14T19:54:15.091Z,3.60
2023-04-14T19:57:01.806Z,3.27
2023-04-14T19:59:48.114Z,3.95
2023-04-14T20:02:35.008Z,3.10
2023-04-14T20:05:23.271Z,2.97
2023-04-14T20:08:10.107Z,2.50
2023-04-14T20:10:56.839Z,2.50
2023-04-14T20:13:45.236Z,2.92
2023-04-14T20:16:32.648Z,3.38
2023-04-14T20:19:19.403Z,3.28
2023-04-14T20:22:07.510Z,3.30
2023-04-14T20:24:53.940Z,2.90
2023-04-14T20:27:40.949Z,2.75
2023-04-14T20:30:29.340Z,2.88
2023-04-14T20:33:16.582Z,3.25
2023-04-14T20:36:03.542Z,2.97
2023-04-14T20:38:51.692Z,2.60
2023-04-14T20:41:38.128Z,2.60
2023-04-14T20:44:24.999Z,2.60
2023-04-14T20:47:11.402Z,2.20
2023-04-14T20:49:58.014Z,2.58
2023-04-14T20:52:44.749Z,2.10
2023-04-14T20:55:32.750Z,2.75
2023-04-14T20:58:19.423Z,2.88
2023-04-14T21:01:06.181Z,2.67
2023-04-14T21:03:52.834Z,3.08
2023-04-14T21:06:39.497Z,3.23
2023-04-14T21:09:25.907Z,2.22
2023-04-14T21:12:16.114Z,3.38
2023-04-14T21:15:47.512Z,3.20
2023-04-14T21:18:11.814Z,3.05
2023-04-14T21:20:58.375Z,3.50
2023-04-14T21:23:44.751Z,3.50
2023-04-14T21:26:31.084Z,3.88
2023-04-14T21:29:19.468Z,3.70
2023-04-14T21:32:06.721Z,3.80
2023-04-14T21:34:53.236Z,2.80
2023-04-14T21:37:39.642Z,2.38
2023-04-14T21:40:26.357Z,2.65
2023-04-14T21:43:12.565Z,3.15
2023-04-14T21:46:00.563Z,3.50
2023-04-14T21:48:46.917Z,3.97
2023-04-14T21:51:33.378Z,4.43
2023-04-14T21:54:20.154Z,3.63
2023-04-14T21:57:06.413Z,3.17
2023-04-14T21:59:53.038Z,3.40
2023-04-14T22:02:41.023Z,3.30
2023-04-14T22:05:27.718Z,2.95
2023-04-14T22:08:14.109Z,3.53
2023-04-14T22:10:43.275Z,3.42
2023-04-14T22:13:11.711Z,3.38
2023-04-14T22:15:40.045Z,3.47
2023-04-14T22:18:09.721Z,3.53
2023-04-14T22:20:37.486Z,3.30
2023-04-14T22:23:05.612Z,3.83
2023-04-14T22:25:33.649Z,3.70
2023-04-14T22:28:01.723Z,4.27
2023-04-14T22:30:29.871Z,4.05
2023-04-14T22:32:57.837Z,3.88
2023-04-14T22:35:26.949Z,3.80
2023-04-14T22:37:54.714Z,4.80
2023-04-14T22:40:22.751Z,4.70
2023-04-14T22:42:50.630Z,3.85
2023-04-14T22:45:18.380Z,3.88
2023-04-14T22:47:46.273Z,3.30
2023-04-14T22:50:14.437Z,3.78
2023-04-14T22:52:43.494Z,3.63
2023-04-14T22:55:11.736Z,3.15
2023-04-14T22:57:39.497Z,2.80
2023-04-14T23:00:11.482Z,2.63
2023-04-14T23:02:42.039Z,3.45
2023-04-14T23:05:11.519Z,2.63
2023-04-14T23:07:39.865Z,2.55
2023-04-14T23:10:10.551Z,2.80
2023-04-14T23:12:38.667Z,2.83
2023-04-14T23:15:08.001Z,2.92
2023-04-14T23:17:36.126Z,2.77
2023-04-14T23:20:04.525Z,2.95
2023-04-14T23:22:32.924Z,2.92
2023-04-14T23:25:00.977Z,2.70
2023-04-14T23:27:30.604Z,2.92
2023-04-14T23:29:58.437Z,3.43
2023-04-14T23:32:26.583Z,3.03
2023-04-14T23:34:54.408Z,2.67
2023-04-14T23:37:22.422Z,2.55
2023-04-14T23:39:50.129Z,2.60
2023-04-14T23:42:17.833Z,2.83
2023-04-14T23:44:46.839Z,2.53
2023-04-14T23:47:14.633Z,2.80
2023-04-14T23:49:42.459Z,2.72
2023-04-14T23:52:10.195Z,2.45
2023-04-14T23:54:38.340Z,2.87
2023-04-14T23:57:06.247Z,2.75
2023-04-14T23:59:34.055Z,2.35
